West Union, Indiana
Current Conditions -  °F | °C
As of 4:55 PM on Thursday 27 Nov 2014 (Local Time) from KPRG Reporting Station
Light Snow Light Snow  
Wind Chill: 17°   Ceiling: 3500
Heat Index: 28°   Visibility: 5mi
Dew Point: 25°   Wind: 14mph
Humidity: 89%   Direction: 290°WNW
Pressure: 30.41"   Gusts: NA
Location:  39.8207°N, 87.3335°W
Report Text: KPRG 272155Z AUTO 29012KT 5SM -SN SCT010 SCT017 OVC035 M02/M04 A3041 RMK AO2 T10221038
Loading
Personal Weather Stations






























Interactive Weather Map New forecast layout! Learn more

10-Day Weather Forecast

Advertisements
Track Severe Weather on mobile